createdAt,value
2019-06-25T00:02:25.847Z,3.57
2019-06-25T00:05:14.262Z,3.40
2019-06-25T00:08:02.294Z,3.27
2019-06-25T00:10:31.329Z,3.40
2019-06-25T00:13:19.678Z,3.30
2019-06-25T00:15:48.666Z,3.60
2019-06-25T00:18:37.066Z,3.60
2019-06-25T00:21:25.434Z,3.73
2019-06-25T00:24:13.728Z,3.50
2019-06-25T00:27:02.050Z,3.60
2019-06-25T00:29:30.839Z,3.70
2019-06-25T00:32:19.429Z,3.57
2019-06-25T00:35:07.394Z,3.43
2019-06-25T00:37:36.568Z,3.30
2019-06-25T00:40:24.524Z,3.63
2019-06-25T00:42:54.003Z,3.10
2019-06-25T00:45:42.276Z,3.40
2019-06-25T00:48:11.203Z,3.30
2019-06-25T00:50:59.487Z,3.30
2019-06-25T00:53:48.209Z,3.50
2019-06-25T00:56:17.579Z,3.80
2019-06-25T00:58:46.231Z,3.30
2019-06-25T01:01:14.960Z,3.10
2019-06-25T01:04:02.606Z,3.47
2019-06-25T01:06:31.389Z,3.63
2019-06-25T01:09:00.158Z,3.77
2019-06-25T01:11:48.168Z,3.50
2019-06-25T01:14:16.849Z,3.33
2019-06-25T01:16:45.492Z,3.30
2019-06-25T01:19:14.140Z,2.97
2019-06-25T01:22:02.867Z,3.20
2019-06-25T01:24:51.189Z,3.20
2019-06-25T01:27:20.346Z,3.47
2019-06-25T01:30:08.539Z,3.47
2019-06-25T01:32:56.859Z,3.30
2019-06-25T01:35:45.411Z,3.20
2019-06-25T01:38:33.439Z,3.50
2019-06-25T01:41:02.178Z,3.27
2019-06-25T01:43:30.984Z,3.60
2019-06-25T01:46:19.235Z,2.90
2019-06-25T01:49:07.234Z,3.23
2019-06-25T01:51:35.904Z,3.50
2019-06-25T01:54:04.669Z,3.17
2019-06-25T01:56:33.369Z,3.40
2019-06-25T01:59:13.864Z,3.03
2019-06-25T02:01:54.470Z,3.50
2019-06-25T02:04:23.218Z,3.47
2019-06-25T02:06:51.988Z,3.57
2019-06-25T02:09:20.994Z,3.47
2019-06-25T02:12:09.093Z,2.83
2019-06-25T02:14:38.719Z,3.33
2019-06-25T02:17:07.687Z,3.37
2019-06-25T02:19:36.667Z,3.17
2019-06-25T02:22:05.702Z,3.30
2019-06-25T02:24:34.751Z,3.07
2019-06-25T02:27:03.513Z,3.33
2019-06-25T02:29:51.501Z,3.37
2019-06-25T02:32:20.921Z,3.20
2019-06-25T02:34:49.874Z,3.20
2019-06-25T02:37:19.187Z,3.27
2019-06-25T02:40:07.185Z,3.10
2019-06-25T02:42:36.793Z,3.27
2019-06-25T02:45:24.905Z,3.17
2019-06-25T02:47:53.616Z,3.20
2019-06-25T02:50:22.869Z,3.30
2019-06-25T02:53:11.447Z,3.27
2019-06-25T02:55:40.681Z,3.63
2019-06-25T02:58:21.732Z,3.37
2019-06-25T03:01:03.258Z,3.30
2019-06-25T03:03:44.110Z,3.40
2019-06-25T03:06:24.979Z,3.00
2019-06-25T03:08:54.299Z,2.83
2019-06-25T03:11:23.122Z,3.37
2019-06-25T03:14:11.364Z,3.20
2019-06-25T03:16:40.296Z,3.10
2019-06-25T03:19:09.757Z,3.03
2019-06-25T03:21:38.736Z,3.00
2019-06-25T03:24:07.650Z,3.03
2019-06-25T03:26:55.729Z,3.20
2019-06-25T03:29:44.005Z,2.87
2019-06-25T03:32:13.277Z,3.30
2019-06-25T03:34:42.568Z,2.83
2019-06-25T03:37:30.824Z,3.17
2019-06-25T03:40:19.130Z,3.13
2019-06-25T03:42:48.131Z,3.60
2019-06-25T03:45:16.863Z,3.87
2019-06-25T03:48:05.248Z,2.97
2019-06-25T03:50:34.727Z,3.00
2019-06-25T03:53:03.714Z,3.10
2019-06-25T03:55:32.671Z,2.90
2019-06-25T03:58:13.617Z,2.97
2019-06-25T04:00:42.579Z,3.27
2019-06-25T04:03:11.336Z,3.20
2019-06-25T04:05:59.516Z,3.30
2019-06-25T04:08:47.543Z,3.17
2019-06-25T04:11:35.623Z,3.30
2019-06-25T04:14:23.633Z,3.30
2019-06-25T04:17:11.605Z,3.30
2019-06-25T04:20:00.185Z,2.93
2019-06-25T04:22:48.186Z,3.43
2019-06-25T04:25:17.412Z,3.00
2019-06-25T04:27:46.202Z,3.30
2019-06-25T04:30:34.229Z,2.53
2019-06-25T04:33:22.268Z,3.03
2019-06-25T04:35:51.005Z,3.17
2019-06-25T04:38:19.994Z,3.00
2019-06-25T04:41:29.295Z,3.10
2019-06-25T04:43:58.024Z,3.00
2019-06-25T04:46:46.012Z,3.00
2019-06-25T04:49:34.028Z,3.20
2019-06-25T04:52:02.835Z,3.27
2019-06-25T04:54:31.551Z,2.93
2019-06-25T04:57:00.235Z,3.00
2019-06-25T04:59:28.983Z,2.67
2019-06-25T05:02:16.978Z,3.60
2019-06-25T05:05:05.429Z,3.17
2019-06-25T05:07:53.484Z,2.63
2019-06-25T05:10:22.580Z,2.80
2019-06-25T05:12:51.846Z,3.10
2019-06-25T05:15:20.790Z,3.23
2019-06-25T05:17:49.660Z,2.83
2019-06-25T05:20:19.443Z,3.23
2019-06-25T05:22:49.077Z,3.03
2019-06-25T05:25:18.014Z,3.20
2019-06-25T05:28:06.242Z,3.00
2019-06-25T05:30:54.559Z,3.00
2019-06-25T05:33:42.764Z,3.30
2019-06-25T05:36:50.106Z,3.00
2019-06-25T05:39:19.028Z,2.80
2019-06-25T05:42:07.025Z,3.00
2019-06-25T05:44:36.001Z,2.80
2019-06-25T05:47:04.734Z,3.07
2019-06-25T05:49:33.537Z,2.80
2019-06-25T05:52:02.436Z,2.77
2019-06-25T05:54:50.493Z,3.27
2019-06-25T05:57:19.313Z,2.80
2019-06-25T05:59:48.276Z,2.97
2019-06-25T06:02:17.384Z,3.03
2019-06-25T06:04:46.400Z,3.00
2019-06-25T06:07:15.148Z,3.07
2019-06-25T06:09:44.451Z,3.10
2019-06-25T06:12:13.431Z,3.07
2019-06-25T06:15:02.001Z,3.23
2019-06-25T06:17:52.097Z,3.23
2019-06-25T06:20:21.196Z,3.00
2019-06-25T06:23:09.330Z,3.20
2019-06-25T06:25:57.379Z,3.03
2019-06-25T06:28:26.239Z,3.00
2019-06-25T06:31:17.457Z,2.83
2019-06-25T06:34:04.017Z,2.73
2019-06-25T06:36:52.020Z,2.90
2019-06-25T06:39:20.846Z,3.17
2019-06-25T06:41:49.571Z,2.90
2019-06-25T06:44:37.944Z,3.00
2019-06-25T06:47:25.965Z,3.00
2019-06-25T06:49:54.644Z,3.00
2019-06-25T06:52:23.671Z,3.00
2019-06-25T06:54:52.407Z,3.23
2019-06-25T06:57:21.221Z,2.90
2019-06-25T07:00:02.525Z,2.90
2019-06-25T07:02:43.765Z,2.80
2019-06-25T07:05:24.485Z,2.60
2019-06-25T07:07:53.801Z,2.70
2019-06-25T07:10:41.780Z,2.97
2019-06-25T07:13:11.175Z,2.63
2019-06-25T07:15:59.700Z,2.90
2019-06-25T07:18:54.912Z,2.80
2019-06-25T07:21:43.532Z,2.80
2019-06-25T07:24:12.633Z,2.40
2019-06-25T07:26:41.403Z,2.80
2019-06-25T07:29:10.557Z,2.67
2019-06-25T07:31:39.255Z,2.70
2019-06-25T07:34:27.580Z,3.00
2019-06-25T07:37:15.847Z,2.90
2019-06-25T07:40:04.258Z,2.70
2019-06-25T07:42:33.240Z,2.60
2019-06-25T07:45:02.624Z,2.27
2019-06-25T07:47:32.490Z,2.47
2019-06-25T07:50:01.678Z,2.60
2019-06-25T07:52:31.748Z,2.53
2019-06-25T07:55:00.527Z,2.40
2019-06-25T07:57:48.574Z,2.23
2019-06-25T08:00:17.335Z,2.20
2019-06-25T08:02:46.375Z,2.17
2019-06-25T08:05:34.434Z,2.50
2019-06-25T08:08:22.440Z,2.50
2019-06-25T08:10:51.159Z,2.23
2019-06-25T08:13:19.848Z,2.10
2019-06-25T08:15:48.531Z,2.60
2019-06-25T08:18:36.969Z,2.47
2019-06-25T08:21:25.328Z,2.20
2019-06-25T08:24:13.648Z,2.20
2019-06-25T08:27:01.662Z,2.30
2019-06-25T08:29:30.684Z,2.30
2019-06-25T08:31:59.931Z,2.20
2019-06-25T08:34:48.824Z,2.40
2019-06-25T08:37:17.780Z,2.20
2019-06-25T08:39:46.959Z,2.53
2019-06-25T08:42:15.715Z,2.20
2019-06-25T08:45:04.011Z,2.07
2019-06-25T08:47:32.971Z,2.00
2019-06-25T08:50:21.799Z,2.03
2019-06-25T08:53:09.735Z,1.90
2019-06-25T08:55:39.588Z,2.17
2019-06-25T08:58:08.563Z,2.00
2019-06-25T09:00:37.676Z,2.03
2019-06-25T09:03:06.664Z,2.13
2019-06-25T09:05:35.409Z,2.10
2019-06-25T09:08:04.135Z,1.97
2019-06-25T09:10:52.166Z,1.90
2019-06-25T09:13:40.491Z,2.07
2019-06-25T09:16:09.244Z,1.97
2019-06-25T09:18:38.071Z,1.60
2019-06-25T09:21:26.050Z,1.80
2019-06-25T09:23:54.792Z,1.70
2019-06-25T09:26:24.000Z,1.53
2019-06-25T09:28:52.986Z,1.80
2019-06-25T09:31:21.741Z,1.60
2019-06-25T09:33:50.525Z,1.90
2019-06-25T09:36:19.290Z,2.00
2019-06-25T09:39:07.335Z,1.77
2019-06-25T09:41:54.740Z,1.70
2019-06-25T09:44:22.294Z,1.70
2019-06-25T09:47:10.279Z,1.50
2019-06-25T09:49:59.163Z,1.70
2019-06-25T09:52:47.488Z,1.50
2019-06-25T09:55:16.473Z,1.40
2019-06-25T09:57:45.825Z,1.50
2019-06-25T10:00:15.025Z,1.90
2019-06-25T10:02:44.064Z,1.40
2019-06-25T10:05:13.021Z,1.57
2019-06-25T10:08:01.609Z,1.30
2019-06-25T10:10:49.969Z,1.37
2019-06-25T10:13:38.237Z,1.47
2019-06-25T10:16:26.253Z,1.57
2019-06-25T10:18:55.082Z,1.60
2019-06-25T10:21:42.781Z,1.57
2019-06-25T10:24:11.980Z,1.53
2019-06-25T10:26:40.775Z,1.40
2019-06-25T10:29:09.538Z,1.50
2019-06-25T10:31:38.167Z,1.60
2019-06-25T10:34:25.958Z,1.30
2019-06-25T10:36:54.729Z,1.50
2019-06-25T10:39:42.779Z,1.50
2019-06-25T10:42:11.529Z,1.20
2019-06-25T10:44:40.271Z,1.60
2019-06-25T10:47:08.944Z,1.23
2019-06-25T10:49:56.989Z,1.30
2019-06-25T10:52:25.700Z,1.30
2019-06-25T10:55:14.501Z,1.30
2019-06-25T10:58:02.475Z,1.23
2019-06-25T11:00:43.731Z,1.40
2019-06-25T11:03:24.774Z,1.53
2019-06-25T11:06:04.865Z,1.20
2019-06-25T11:08:43.440Z,1.30
2019-06-25T11:11:12.966Z,1.60
2019-06-25T11:14:08.411Z,1.40
2019-06-25T11:16:51.199Z,1.30
2019-06-25T11:19:39.256Z,1.13
2019-06-25T11:22:08.596Z,1.67
2019-06-25T11:24:38.225Z,1.40
2019-06-25T11:27:26.342Z,1.10
2019-06-25T11:29:55.211Z,1.27
2019-06-25T11:32:24.814Z,1.10
2019-06-25T11:35:12.884Z,1.10
2019-06-25T11:37:41.940Z,1.20
2019-06-25T11:40:52.754Z,1.00
2019-06-25T11:43:44.632Z,1.23
2019-06-25T11:46:11.459Z,1.20
2019-06-25T11:48:59.828Z,1.17
2019-06-25T11:51:48.370Z,1.20
2019-06-25T11:54:36.371Z,1.20
2019-06-25T11:57:05.671Z,1.30
2019-06-25T11:59:54.220Z,1.20
2019-06-25T12:02:35.609Z,1.20
2019-06-25T12:05:04.998Z,1.07
2019-06-25T12:07:53.283Z,1.10
2019-06-25T12:10:22.309Z,1.03
2019-06-25T12:12:50.992Z,1.07
2019-06-25T12:15:20.233Z,1.00
2019-06-25T12:17:49.469Z,1.07
2019-06-25T12:23:25.577Z,1.20
2019-06-25T12:26:14.997Z,1.10
2019-06-25T12:28:44.300Z,1.00
2019-06-25T12:31:32.564Z,1.17
2019-06-25T12:34:20.585Z,1.03
2019-06-25T12:37:10.164Z,1.03
2019-06-25T12:39:39.020Z,1.10
2019-06-25T12:42:08.119Z,1.10
2019-06-25T12:44:56.192Z,1.30
2019-06-25T12:47:44.512Z,1.10
2019-06-25T12:50:32.935Z,1.10
2019-06-25T12:53:25.881Z,1.10
2019-06-25T12:55:54.627Z,1.13
2019-06-25T12:58:42.935Z,1.20
2019-06-25T13:01:37.168Z,1.40
2019-06-25T13:04:06.458Z,1.20
2019-06-25T13:06:47.685Z,1.20
2019-06-25T13:09:16.749Z,1.10
2019-06-25T13:12:04.790Z,1.10
2019-06-25T13:14:33.817Z,1.03
2019-06-25T13:17:21.827Z,0.90
2019-06-25T13:19:50.898Z,1.20
2019-06-25T13:22:19.684Z,1.00
2019-06-25T13:24:50.947Z,1.37
2019-06-25T13:27:18.792Z,1.00
2019-06-25T13:30:07.063Z,1.20
2019-06-25T13:32:35.799Z,1.20
2019-06-25T13:35:05.066Z,1.30
2019-06-25T13:37:53.120Z,1.00
2019-06-25T13:40:21.899Z,1.10
2019-06-25T13:42:50.860Z,1.17
2019-06-25T13:45:39.413Z,1.17
2019-06-25T13:48:12.066Z,1.10
2019-06-25T13:50:39.327Z,1.20
2019-06-25T13:53:27.896Z,1.10
2019-06-25T13:55:56.902Z,1.10
2019-06-25T13:58:25.998Z,1.20
2019-06-25T14:01:06.726Z,1.30
2019-06-25T14:03:47.503Z,1.17
2019-06-25T14:06:28.799Z,1.13
2019-06-25T14:08:57.607Z,1.13
2019-06-25T14:11:26.611Z,1.10
2019-06-25T14:14:15.395Z,1.20
2019-06-25T14:17:03.696Z,1.20
2019-06-25T14:19:32.956Z,1.20
2019-06-25T14:22:21.280Z,1.30
2019-06-25T14:25:09.547Z,1.30
2019-06-25T14:27:38.287Z,1.60
2019-06-25T14:30:07.611Z,1.20
2019-06-25T14:32:55.666Z,1.30
2019-06-25T14:35:47.247Z,1.40
2019-06-25T14:38:33.783Z,1.30
2019-06-25T14:41:02.727Z,1.30
2019-06-25T14:43:51.282Z,1.50
2019-06-25T14:46:20.472Z,1.37
2019-06-25T14:49:08.834Z,1.63
2019-06-25T14:51:38.968Z,1.33
2019-06-25T14:54:28.684Z,1.10
2019-06-25T14:57:17.028Z,1.57
2019-06-25T15:00:05.530Z,1.37
2019-06-25T15:02:34.644Z,1.50
2019-06-25T15:05:03.617Z,1.60
2019-06-25T15:07:52.239Z,1.20
2019-06-25T15:10:21.219Z,1.43
2019-06-25T15:12:50.635Z,1.33
2019-06-25T15:15:40.353Z,1.40
2019-06-25T15:18:09.068Z,1.40
2019-06-25T15:20:57.336Z,2.03
2019-06-25T15:23:26.579Z,1.70
2019-06-25T15:25:55.617Z,1.53
2019-06-25T15:28:24.594Z,1.77
2019-06-25T15:30:53.277Z,1.60
2019-06-25T15:33:22.038Z,1.70
2019-06-25T15:36:10.172Z,1.67
2019-06-25T15:38:58.384Z,1.60
2019-06-25T15:41:46.383Z,1.60
2019-06-25T15:44:34.899Z,1.60
2019-06-25T15:47:04.132Z,1.60
2019-06-25T15:49:52.927Z,1.47
2019-06-25T15:52:41.297Z,1.50
2019-06-25T15:55:29.772Z,1.57
2019-06-25T15:57:58.813Z,1.90
2019-06-25T16:00:27.788Z,1.70
2019-06-25T16:02:56.855Z,1.53
2019-06-25T16:05:45.156Z,1.90
2019-06-25T16:08:36.313Z,1.93
2019-06-25T16:11:08.920Z,1.83
2019-06-25T16:14:11.543Z,1.50
2019-06-25T16:16:47.084Z,1.70
2019-06-25T16:22:24.740Z,1.63
2019-06-25T16:24:53.392Z,1.80
2019-06-25T16:27:41.687Z,1.90
2019-06-25T16:30:10.416Z,1.70
2019-06-25T16:32:39.466Z,1.70
2019-06-25T16:35:27.492Z,1.77
2019-06-25T16:38:30.097Z,2.10
2019-06-25T16:40:46.839Z,1.60
2019-06-25T16:43:15.665Z,2.10
2019-06-25T16:45:59.362Z,1.90
2019-06-25T16:48:15.372Z,1.93
2019-06-25T16:53:43.068Z,1.70
2019-06-25T16:56:12.122Z,1.70
2019-06-25T16:58:40.928Z,1.90
2019-06-25T17:01:10.219Z,2.23
2019-06-25T17:03:39.317Z,2.00
2019-06-25T17:06:08.604Z,2.20
2019-06-25T17:08:56.873Z,2.13
2019-06-25T17:11:25.687Z,1.83
2019-06-25T17:14:13.703Z,1.80
2019-06-25T17:16:42.660Z,2.30
2019-06-25T17:19:30.684Z,2.13
2019-06-25T17:21:59.475Z,2.30
2019-06-25T17:24:47.663Z,2.43
2019-06-25T17:27:16.521Z,1.97
2019-06-25T17:30:04.609Z,2.07
2019-06-25T17:32:33.331Z,2.07
2019-06-25T17:35:02.391Z,2.40
2019-06-25T17:37:50.633Z,2.00
2019-06-25T17:40:19.686Z,2.10
2019-06-25T17:42:48.398Z,2.03
2019-06-25T17:45:17.091Z,2.30
2019-06-25T17:48:04.826Z,2.13
2019-06-25T17:50:33.293Z,2.27
2019-06-25T17:53:02.648Z,2.30
2019-06-25T17:55:50.906Z,2.10
2019-06-25T17:58:20.060Z,2.30
2019-06-25T18:00:49.173Z,2.37
2019-06-25T18:03:29.714Z,2.30
2019-06-25T18:05:58.715Z,2.40
2019-06-25T18:08:27.420Z,2.23
2019-06-25T18:11:16.864Z,2.43
2019-06-25T18:14:04.671Z,2.17
2019-06-25T18:16:53.335Z,2.10
2019-06-25T18:19:55.713Z,2.13
2019-06-25T18:22:44.469Z,1.93
2019-06-25T18:25:34.435Z,2.10
2019-06-25T18:28:22.418Z,2.30
2019-06-25T18:30:57.315Z,2.00
2019-06-25T18:33:28.697Z,2.00
2019-06-25T18:37:07.404Z,2.20
2019-06-25T18:39:40.308Z,2.00
2019-06-25T18:42:09.011Z,2.27
2019-06-25T18:44:38.236Z,2.00
2019-06-25T18:47:07.488Z,2.27
2019-06-25T18:49:55.858Z,2.17
2019-06-25T18:52:24.939Z,1.90
2019-06-25T18:54:54.132Z,2.17
2019-06-25T18:57:42.403Z,1.97
2019-06-25T19:00:30.457Z,1.80
2019-06-25T19:02:59.260Z,1.80
2019-06-25T19:05:28.029Z,2.10
2019-06-25T19:07:56.767Z,2.27
2019-06-25T19:10:39.239Z,1.90
2019-06-25T19:12:56.180Z,2.00
2019-06-25T19:15:25.376Z,1.93
2019-06-25T19:17:54.359Z,2.37
2019-06-25T19:20:23.045Z,2.30
2019-06-25T19:22:52.011Z,2.10
2019-06-25T19:25:20.778Z,2.30
2019-06-25T19:27:50.189Z,2.23
2019-06-25T19:30:20.872Z,2.20
2019-06-25T19:33:08.893Z,2.10
2019-06-25T19:36:05.524Z,2.20
2019-06-25T19:38:28.008Z,2.20
2019-06-25T19:40:59.764Z,2.20
2019-06-25T19:43:28.893Z,2.23
2019-06-25T19:45:57.989Z,2.30
2019-06-25T19:48:27.141Z,2.30
2019-06-25T19:50:56.149Z,2.30
2019-06-25T19:53:25.067Z,2.33
2019-06-25T19:56:13.318Z,1.90
2019-06-25T19:59:01.369Z,1.90
2019-06-25T20:01:30.112Z,2.10
2019-06-25T20:04:10.912Z,2.23
2019-06-25T20:06:40.991Z,1.93
2019-06-25T20:09:09.852Z,2.00
2019-06-25T20:11:39.293Z,2.20
2019-06-25T20:14:08.618Z,2.30
2019-06-25T20:16:57.167Z,2.10
2019-06-25T20:19:45.531Z,1.87
2019-06-25T20:22:33.667Z,1.90
2019-06-25T20:25:21.792Z,2.30
2019-06-25T20:27:50.982Z,2.17
2019-06-25T20:30:39.723Z,2.00
2019-06-25T20:33:41.516Z,2.10
2019-06-25T20:36:19.360Z,2.40
2019-06-25T20:38:51.303Z,2.10
2019-06-25T20:41:39.727Z,2.17
2019-06-25T20:44:28.585Z,2.00
2019-06-25T20:47:31.483Z,2.10
2019-06-25T20:50:10.000Z,2.30
2019-06-25T20:55:30.270Z,2.20
2019-06-25T20:58:19.324Z,2.10
2019-06-25T21:04:20.170Z,2.00
2019-06-25T21:06:49.963Z,2.43
2019-06-25T21:09:18.870Z,2.10
2019-06-25T21:11:49.098Z,2.23
2019-06-25T21:14:37.359Z,2.27
2019-06-25T21:17:06.387Z,1.80
2019-06-25T21:19:42.942Z,2.10
2019-06-25T21:22:05.668Z,2.17
2019-06-25T21:24:53.970Z,1.90
2019-06-25T21:27:22.789Z,2.10
2019-06-25T21:29:51.805Z,1.77
2019-06-25T21:32:20.677Z,2.30
2019-06-25T21:34:50.671Z,2.03
2019-06-25T21:37:20.494Z,2.07
2019-06-25T21:40:09.702Z,1.93
2019-06-25T21:42:38.796Z,2.00
2019-06-25T21:45:07.782Z,2.00
2019-06-25T21:47:36.524Z,2.20
2019-06-25T21:50:05.663Z,2.07
2019-06-25T21:52:34.830Z,1.80
2019-06-25T21:55:03.682Z,2.00
2019-06-25T21:57:33.572Z,2.20
2019-06-25T22:00:21.718Z,1.93
2019-06-25T22:02:52.591Z,4.30
2019-06-25T22:05:24.196Z,7.40
2019-06-25T22:08:12.260Z,7.40
2019-06-25T22:10:40.971Z,7.23
2019-06-25T22:13:29.341Z,6.90
2019-06-25T22:16:17.595Z,7.83
2019-06-25T22:18:46.280Z,8.60
2019-06-25T22:21:34.474Z,8.37
2019-06-25T22:24:03.156Z,8.90
2019-06-25T22:26:51.179Z,8.60
2019-06-25T22:29:19.925Z,8.47
2019-06-25T22:31:48.763Z,8.50
2019-06-25T22:34:17.650Z,8.30
2019-06-25T22:36:47.287Z,8.43
2019-06-25T22:39:16.163Z,9.80
2019-06-25T22:41:44.816Z,9.77
2019-06-25T22:44:13.903Z,9.93
2019-06-25T22:46:42.760Z,10.07
2019-06-25T22:49:31.804Z,10.23
2019-06-25T22:52:00.694Z,9.97
2019-06-25T22:54:29.833Z,9.80
2019-06-25T22:56:58.563Z,9.13
2019-06-25T22:59:27.436Z,9.57
2019-06-25T23:02:15.560Z,10.40
2019-06-25T23:04:44.481Z,16.97
2019-06-25T23:07:13.357Z,11.57
2019-06-25T23:09:42.449Z,10.13
2019-06-25T23:12:30.597Z,10.20
2019-06-25T23:15:18.589Z,10.63
2019-06-25T23:17:47.376Z,10.20
2019-06-25T23:20:16.163Z,10.33
2019-06-25T23:22:44.852Z,10.73
2019-06-25T23:25:13.611Z,10.80
2019-06-25T23:27:43.677Z,11.30
2019-06-25T23:30:12.769Z,10.77
2019-06-25T23:32:41.947Z,28.23
2019-06-25T23:35:33.281Z,72.03
2019-06-25T23:38:02.144Z,16.07
2019-06-25T23:40:30.842Z,11.27
2019-06-25T23:43:09.611Z,10.80
2019-06-25T23:45:31.439Z,11.10
2019-06-25T23:48:00.403Z,11.67
2019-06-25T23:50:29.424Z,10.20
2019-06-25T23:52:59.254Z,10.30
2019-06-25T23:55:47.364Z,11.17
2019-06-25T23:58:16.929Z,11.50
